sensor_id;sensor_type;location;lat;lon;timestamp;pressure;altitude;pressure_sealevel;temperature;humidity
46394;BME280;32099;53.588;10.176;2024-01-25T00:00:53;101485.41;;;7.67;84.22
46394;BME280;32099;53.588;10.176;2024-01-25T00:03:18;101491.16;;;7.64;84.19
46394;BME280;32099;53.588;10.176;2024-01-25T00:05:44;101468.56;;;7.64;84.44
46394;BME280;32099;53.588;10.176;2024-01-25T00:08:10;101485.00;;;7.62;84.29
46394;BME280;32099;53.588;10.176;2024-01-25T00:10:35;101473.28;;;7.62;83.73
46394;BME280;32099;53.588;10.176;2024-01-25T00:13:01;101469.16;;;7.57;84.62
46394;BME280;32099;53.588;10.176;2024-01-25T00:15:27;101473.72;;;7.57;84.52
46394;BME280;32099;53.588;10.176;2024-01-25T00:17:55;101457.72;;;7.54;84.45
46394;BME280;32099;53.588;10.176;2024-01-25T00:20:21;101484.00;;;7.53;84.59
46394;BME280;32099;53.588;10.176;2024-01-25T00:22:49;101481.84;;;7.57;85.05
46394;BME280;32099;53.588;10.176;2024-01-25T00:25:15;101499.16;;;7.56;85.05
46394;BME280;32099;53.588;10.176;2024-01-25T00:27:40;101517.31;;;7.55;84.98
46394;BME280;32099;53.588;10.176;2024-01-25T00:30:07;101498.44;;;7.54;84.96
46394;BME280;32099;53.588;10.176;2024-01-25T00:32:33;101499.31;;;7.54;84.09
46394;BME280;32099;53.588;10.176;2024-01-25T00:35:02;101499.47;;;7.53;84.79
46394;BME280;32099;53.588;10.176;2024-01-25T00:37:28;101495.03;;;7.52;85.26
46394;BME280;32099;53.588;10.176;2024-01-25T00:39:54;101500.16;;;7.55;84.69
46394;BME280;32099;53.588;10.176;2024-01-25T00:42:21;101511.72;;;7.57;84.25
46394;BME280;32099;53.588;10.176;2024-01-25T00:44:48;101502.84;;;7.55;84.36
46394;BME280;32099;53.588;10.176;2024-01-25T00:47:14;101503.84;;;7.54;84.83
46394;BME280;32099;53.588;10.176;2024-01-25T00:49:41;101505.56;;;7.55;84.62
46394;BME280;32099;53.588;10.176;2024-01-25T00:52:10;101504.56;;;7.56;85.60
46394;BME280;32099;53.588;10.176;2024-01-25T00:54:37;101499.47;;;7.53;85.20
46394;BME280;32099;53.588;10.176;2024-01-25T00:57:04;101499.75;;;7.50;84.97
46394;BME280;32099;53.588;10.176;2024-01-25T00:59:32;101504.28;;;7.49;85.94
46394;BME280;32099;53.588;10.176;2024-01-25T01:01:59;101513.31;;;7.50;86.20
46394;BME280;32099;53.588;10.176;2024-01-25T01:04:28;101515.88;;;7.51;86.09
46394;BME280;32099;53.588;10.176;2024-01-25T01:06:56;101520.44;;;7.51;85.48
46394;BME280;32099;53.588;10.176;2024-01-25T01:09:25;101515.31;;;7.48;85.50
46394;BME280;32099;53.588;10.176;2024-01-25T01:11:50;101523.28;;;7.49;86.06
46394;BME280;32099;53.588;10.176;2024-01-25T01:14:16;101526.72;;;7.51;85.58
46394;BME280;32099;53.588;10.176;2024-01-25T01:16:42;101530.31;;;7.52;84.91
46394;BME280;32099;53.588;10.176;2024-01-25T01:19:08;101529.44;;;7.51;85.84
46394;BME280;32099;53.588;10.176;2024-01-25T01:21:33;101539.28;;;7.52;85.64
46394;BME280;32099;53.588;10.176;2024-01-25T01:23:59;101531.31;;;7.51;85.47
46394;BME280;32099;53.588;10.176;2024-01-25T01:26:28;101535.16;;;7.48;85.07
46394;BME280;32099;53.588;10.176;2024-01-25T01:28:54;101532.44;;;7.48;85.73
46394;BME280;32099;53.588;10.176;2024-01-25T01:31:20;101521.44;;;7.50;84.87
46394;BME280;32099;53.588;10.176;2024-01-25T01:33:46;101527.00;;;7.48;85.93
46394;BME280;32099;53.588;10.176;2024-01-25T01:36:12;101527.31;;;7.45;85.57
46394;BME280;32099;53.588;10.176;2024-01-25T01:38:38;101528.16;;;7.46;85.74
46394;BME280;32099;53.588;10.176;2024-01-25T01:41:04;101537.16;;;7.46;85.56
46394;BME280;32099;53.588;10.176;2024-01-25T01:43:33;101533.75;;;7.44;85.13
46394;BME280;32099;53.588;10.176;2024-01-25T01:46:00;101541.88;;;7.44;86.02
46394;BME280;32099;53.588;10.176;2024-01-25T01:48:32;101547.31;;;7.44;86.07
46394;BME280;32099;53.588;10.176;2024-01-25T01:50:59;101555.44;;;7.44;85.30
46394;BME280;32099;53.588;10.176;2024-01-25T01:53:25;101549.88;;;7.46;85.25
46394;BME280;32099;53.588;10.176;2024-01-25T01:55:51;101548.03;;;7.46;85.44
46394;BME280;32099;53.588;10.176;2024-01-25T01:58:17;101548.88;;;7.47;85.68
46394;BME280;32099;53.588;10.176;2024-01-25T02:00:48;101566.88;;;7.48;85.52
46394;BME280;32099;53.588;10.176;2024-01-25T02:03:15;101556.00;;;7.48;86.09
46394;BME280;32099;53.588;10.176;2024-01-25T02:05:41;101557.72;;;7.49;85.42
46394;BME280;32099;53.588;10.176;2024-01-25T02:08:07;101570.16;;;7.51;85.52
46394;BME280;32099;53.588;10.176;2024-01-25T02:10:34;101558.28;;;7.52;85.10
46394;BME280;32099;53.588;10.176;2024-01-25T02:13:00;101565.59;;;7.52;85.67
46394;BME280;32099;53.588;10.176;2024-01-25T02:15:26;101567.44;;;7.51;85.10
46394;BME280;32099;53.588;10.176;2024-01-25T02:18:03;101582.56;;;7.54;85.44
46394;BME280;32099;53.588;10.176;2024-01-25T02:20:30;101584.28;;;7.55;86.09
46394;BME280;32099;53.588;10.176;2024-01-25T02:22:59;101578.16;;;7.53;85.64
46394;BME280;32099;53.588;10.176;2024-01-25T02:25:24;101555.59;;;7.52;85.77
46394;BME280;32099;53.588;10.176;2024-01-25T02:27:50;101556.56;;;7.51;85.95
46394;BME280;32099;53.588;10.176;2024-01-25T02:30:16;101561.00;;;7.52;85.61
46394;BME280;32099;53.588;10.176;2024-01-25T02:32:42;101559.16;;;7.53;85.97
46394;BME280;32099;53.588;10.176;2024-01-25T02:35:08;101567.31;;;7.53;85.67
46394;BME280;32099;53.588;10.176;2024-01-25T02:37:34;101567.44;;;7.51;85.74
46394;BME280;32099;53.588;10.176;2024-01-25T02:40:04;101572.03;;;7.51;85.64
46394;BME280;32099;53.588;10.176;2024-01-25T02:42:30;101565.88;;;7.49;86.08
46394;BME280;32099;53.588;10.176;2024-01-25T02:44:56;101581.00;;;7.51;86.37
46394;BME280;32099;53.588;10.176;2024-01-25T02:47:22;101576.44;;;7.52;85.88
46394;BME280;32099;53.588;10.176;2024-01-25T02:49:47;101588.44;;;7.49;86.07
46394;BME280;32099;53.588;10.176;2024-01-25T02:52:13;101588.44;;;7.49;86.07
46394;BME280;32099;53.588;10.176;2024-01-25T02:54:39;101593.84;;;7.49;85.91
46394;BME280;32099;53.588;10.176;2024-01-25T02:57:08;101594.72;;;7.50;86.33
46394;BME280;32099;53.588;10.176;2024-01-25T02:59:34;101617.16;;;7.52;86.26
46394;BME280;32099;53.588;10.176;2024-01-25T03:01:59;101610.88;;;7.51;86.47
46394;BME280;32099;53.588;10.176;2024-01-25T03:04:25;101610.88;;;7.51;86.82
46394;BME280;32099;53.588;10.176;2024-01-25T03:06:51;101619.16;;;7.50;86.43
46394;BME280;32099;53.588;10.176;2024-01-25T03:09:17;101620.16;;;7.49;86.84
46394;BME280;32099;53.588;10.176;2024-01-25T03:11:43;101601.16;;;7.49;87.18
46394;BME280;32099;53.588;10.176;2024-01-25T03:14:11;101602.16;;;7.48;86.61
46394;BME280;32099;53.588;10.176;2024-01-25T03:16:37;101602.16;;;7.48;86.93
46394;BME280;32099;53.588;10.176;2024-01-25T03:19:03;101620.44;;;7.46;86.46
46394;BME280;32099;53.588;10.176;2024-01-25T03:21:29;101627.72;;;7.45;86.82
46394;BME280;32099;53.588;10.176;2024-01-25T03:23:57;101631.28;;;7.46;86.63
46394;BME280;32099;53.588;10.176;2024-01-25T03:26:23;101633.00;;;7.47;86.43
46394;BME280;32099;53.588;10.176;2024-01-25T03:28:48;101633.88;;;7.47;85.96
46394;BME280;32099;53.588;10.176;2024-01-25T03:31:17;101649.28;;;7.47;86.73
46394;BME280;32099;53.588;10.176;2024-01-25T03:33:42;101638.28;;;7.48;87.17
46394;BME280;32099;53.588;10.176;2024-01-25T03:36:08;101643.59;;;7.50;86.44
46394;BME280;32099;53.588;10.176;2024-01-25T03:38:34;101655.28;;;7.50;85.84
46394;BME280;32099;53.588;10.176;2024-01-25T03:41:00;101657.16;;;7.50;86.32
46394;BME280;32099;53.588;10.176;2024-01-25T03:43:25;101660.88;;;7.49;86.12
46394;BME280;32099;53.588;10.176;2024-01-25T03:45:51;101666.28;;;7.49;86.04
46394;BME280;32099;53.588;10.176;2024-01-25T03:48:20;101675.28;;;7.49;86.28
46394;BME280;32099;53.588;10.176;2024-01-25T03:50:47;101676.16;;;7.50;86.13
46394;BME280;32099;53.588;10.176;2024-01-25T03:53:13;101688.72;;;7.51;85.99
46394;BME280;32099;53.588;10.176;2024-01-25T03:55:39;101686.13;;;7.49;86.23
46394;BME280;32099;53.588;10.176;2024-01-25T03:58:06;101689.72;;;7.50;86.78
46394;BME280;32099;53.588;10.176;2024-01-25T04:00:32;101681.59;;;7.50;87.00
46394;BME280;32099;53.588;10.176;2024-01-25T04:02:58;101684.03;;;7.53;86.13
46394;BME280;32099;53.588;10.176;2024-01-25T04:05:27;101686.75;;;7.53;86.53
46394;BME280;32099;53.588;10.176;2024-01-25T04:07:53;101690.28;;;7.53;86.25
46394;BME280;32099;53.588;10.176;2024-01-25T04:10:18;101688.72;;;7.51;86.31
46394;BME280;32099;53.588;10.176;2024-01-25T04:12:44;101709.44;;;7.52;86.81
46394;BME280;32099;53.588;10.176;2024-01-25T04:15:10;101706.13;;;7.48;86.72
46394;BME280;32099;53.588;10.176;2024-01-25T04:17:36;101724.56;;;7.45;87.04
46394;BME280;32099;53.588;10.176;2024-01-25T04:20:02;101726.41;;;7.44;87.09
46394;BME280;32099;53.588;10.176;2024-01-25T04:22:38;101734.56;;;7.44;87.31
46394;BME280;32099;53.588;10.176;2024-01-25T04:25:04;101736.41;;;7.44;87.86
46394;BME280;32099;53.588;10.176;2024-01-25T04:27:30;101736.69;;;7.40;87.51
46394;BME280;32099;53.588;10.176;2024-01-25T04:29:56;101736.81;;;7.39;86.99
46394;BME280;32099;53.588;10.176;2024-01-25T04:32:22;101729.66;;;7.38;88.21
46394;BME280;32099;53.588;10.176;2024-01-25T04:34:48;101734.97;;;7.39;88.08
46394;BME280;32099;53.588;10.176;2024-01-25T04:37:14;101735.81;;;7.40;87.72
46394;BME280;32099;53.588;10.176;2024-01-25T04:39:42;101733.25;;;7.38;87.13
46394;BME280;32099;53.588;10.176;2024-01-25T04:42:08;101744.13;;;7.38;87.38
46394;BME280;32099;53.588;10.176;2024-01-25T04:44:34;101743.13;;;7.39;87.61
46394;BME280;32099;53.588;10.176;2024-01-25T04:47:02;101742.41;;;7.37;87.83
46394;BME280;32099;53.588;10.176;2024-01-25T04:49:27;101739.69;;;7.37;87.42
46394;BME280;32099;53.588;10.176;2024-01-25T04:51:53;101720.47;;;7.19;87.81
46394;BME280;32099;53.588;10.176;2024-01-25T04:54:19;101752.66;;;7.34;87.92
46394;BME280;32099;53.588;10.176;2024-01-25T04:56:47;101744.38;;;7.35;88.12
46394;BME280;32099;53.588;10.176;2024-01-25T04:59:13;101757.22;;;7.33;88.24
46394;BME280;32099;53.588;10.176;2024-01-25T05:01:39;101753.25;;;7.37;87.67
46394;BME280;32099;53.588;10.176;2024-01-25T05:04:04;101753.09;;;7.39;87.93
46394;BME280;32099;53.588;10.176;2024-01-25T05:06:30;101745.94;;;7.38;87.41
46394;BME280;32099;53.588;10.176;2024-01-25T05:08:56;101762.53;;;7.35;87.92
46394;BME280;32099;53.588;10.176;2024-01-25T05:11:21;101766.66;;;7.29;87.63
46394;BME280;32099;53.588;10.176;2024-01-25T05:13:52;101780.22;;;7.29;87.79
46394;BME280;32099;53.588;10.176;2024-01-25T05:16:18;101779.34;;;7.29;88.13
46394;BME280;32099;53.588;10.176;2024-01-25T05:18:45;101779.22;;;7.30;88.24
46394;BME280;32099;53.588;10.176;2024-01-25T05:21:10;101794.47;;;7.31;87.84
46394;BME280;32099;53.588;10.176;2024-01-25T05:23:36;101784.66;;;7.30;87.70
46394;BME280;32099;53.588;10.176;2024-01-25T05:26:02;101727.34;;;6.92;87.82
46394;BME280;32099;53.588;10.176;2024-01-25T05:28:28;101791.06;;;7.29;88.43
46394;BME280;32099;53.588;10.176;2024-01-25T05:30:57;101791.19;;;7.28;87.42
46394;BME280;32099;53.588;10.176;2024-01-25T05:33:23;101800.19;;;7.28;87.87
46394;BME280;32099;53.588;10.176;2024-01-25T05:35:49;101804.63;;;7.29;87.75
46394;BME280;32099;53.588;10.176;2024-01-25T05:38:15;101804.75;;;7.28;88.01
46394;BME280;32099;53.588;10.176;2024-01-25T05:40:41;101804.75;;;7.28;88.12
46394;BME280;32099;53.588;10.176;2024-01-25T05:43:07;101810.34;;;7.26;88.18
46394;BME280;32099;53.588;10.176;2024-01-25T05:45:33;101802.19;;;7.26;88.43
46394;BME280;32099;53.588;10.176;2024-01-25T05:48:05;101811.16;;;7.26;88.60
46394;BME280;32099;53.588;10.176;2024-01-25T05:50:31;101812.06;;;7.27;88.20
46394;BME280;32099;53.588;10.176;2024-01-25T05:52:57;101824.63;;;7.28;87.85
46394;BME280;32099;53.588;10.176;2024-01-25T05:55:23;101824.63;;;7.28;88.69
46394;BME280;32099;53.588;10.176;2024-01-25T05:57:48;101830.91;;;7.29;88.28
46394;BME280;32099;53.588;10.176;2024-01-25T06:00:15;101822.03;;;7.26;88.57
46394;BME280;32099;53.588;10.176;2024-01-25T06:02:41;101833.03;;;7.25;87.63
46394;BME280;32099;53.588;10.176;2024-01-25T06:05:10;101828.84;;;7.21;89.03
46394;BME280;32099;53.588;10.176;2024-01-25T06:07:36;101836.00;;;7.22;88.48
46394;BME280;32099;53.588;10.176;2024-01-25T06:10:02;101845.84;;;7.23;88.33
46394;BME280;32099;53.588;10.176;2024-01-25T06:12:29;101851.28;;;7.23;88.83
46394;BME280;32099;53.588;10.176;2024-01-25T06:14:54;101839.59;;;7.22;88.54
46394;BME280;32099;53.588;10.176;2024-01-25T06:17:21;101797.53;;;6.86;88.62
46394;BME280;32099;53.588;10.176;2024-01-25T06:19:47;101867.56;;;7.23;88.13
46394;BME280;32099;53.588;10.176;2024-01-25T06:22:15;101863.13;;;7.22;88.74
46394;BME280;32099;53.588;10.176;2024-01-25T06:24:41;101857.84;;;7.20;88.21
46394;BME280;32099;53.588;10.176;2024-01-25T06:27:07;101863.28;;;7.20;89.12
46394;BME280;32099;53.588;10.176;2024-01-25T06:29:33;101865.09;;;7.20;88.49
46394;BME280;32099;53.588;10.176;2024-01-25T06:31:58;101869.84;;;7.18;88.18
46394;BME280;32099;53.588;10.176;2024-01-25T06:34:24;101858.97;;;7.18;88.51
46394;BME280;32099;53.588;10.176;2024-01-25T06:36:50;101871.81;;;7.16;88.37
46394;BME280;32099;53.588;10.176;2024-01-25T06:39:18;101873.78;;;7.14;88.84
46394;BME280;32099;53.588;10.176;2024-01-25T06:41:44;101874.66;;;7.14;88.95
46394;BME280;32099;53.588;10.176;2024-01-25T06:44:10;101884.50;;;7.15;88.41
46394;BME280;32099;53.588;10.176;2024-01-25T06:46:37;101889.09;;;7.15;88.70
46394;BME280;32099;53.588;10.176;2024-01-25T06:49:03;101887.63;;;7.10;88.86
46394;BME280;32099;53.588;10.176;2024-01-25T06:51:29;101890.22;;;7.12;88.65
46394;BME280;32099;53.588;10.176;2024-01-25T06:53:55;101894.50;;;7.15;88.90
46394;BME280;32099;53.588;10.176;2024-01-25T06:56:24;101905.38;;;7.15;89.32
46394;BME280;32099;53.588;10.176;2024-01-25T06:58:50;101904.47;;;7.14;89.34
46394;BME280;32099;53.588;10.176;2024-01-25T07:01:19;101915.34;;;7.14;88.75
46394;BME280;32099;53.588;10.176;2024-01-25T07:03:45;101913.50;;;7.15;89.49
46394;BME280;32099;53.588;10.176;2024-01-25T07:06:11;101917.94;;;7.16;88.95
46394;BME280;32099;53.588;10.176;2024-01-25T07:08:37;101926.91;;;7.16;88.18
46394;BME280;32099;53.588;10.176;2024-01-25T07:11:02;101931.50;;;7.16;88.68
46394;BME280;32099;53.588;10.176;2024-01-25T07:13:31;101935.34;;;7.13;88.34
46394;BME280;32099;53.588;10.176;2024-01-25T07:15:57;101934.59;;;7.11;89.13
46394;BME280;32099;53.588;10.176;2024-01-25T07:18:22;101933.13;;;7.07;88.34
46394;BME280;32099;53.588;10.176;2024-01-25T07:20:48;101944.13;;;7.05;88.66
46394;BME280;32099;53.588;10.176;2024-01-25T07:23:13;101962.25;;;7.05;89.15
46394;BME280;32099;53.588;10.176;2024-01-25T07:25:39;101952.38;;;7.04;88.98
46394;BME280;32099;53.588;10.176;2024-01-25T07:28:05;101957.94;;;7.02;89.67
46394;BME280;32099;53.588;10.176;2024-01-25T07:30:33;101954.09;;;7.05;88.81
46394;BME280;32099;53.588;10.176;2024-01-25T07:32:59;101946.94;;;7.04;89.98
46394;BME280;32099;53.588;10.176;2024-01-25T07:35:25;101952.38;;;7.04;89.19
46394;BME280;32099;53.588;10.176;2024-01-25T07:37:51;101959.66;;;7.03;88.90
46394;BME280;32099;53.588;10.176;2024-01-25T07:40:18;101956.06;;;7.03;89.59
46394;BME280;32099;53.588;10.176;2024-01-25T07:42:43;101962.25;;;7.05;88.69
46394;BME280;32099;53.588;10.176;2024-01-25T07:45:11;101957.06;;;7.02;89.46
46394;BME280;32099;53.588;10.176;2024-01-25T07:47:39;101958.09;;;7.01;88.83
46394;BME280;32099;53.588;10.176;2024-01-25T07:50:06;101957.94;;;7.02;88.70
46394;BME280;32099;53.588;10.176;2024-01-25T07:52:32;101959.06;;;7.00;89.07
46394;BME280;32099;53.588;10.176;2024-01-25T07:54:58;101969.19;;;6.98;89.96
46394;BME280;32099;53.588;10.176;2024-01-25T07:57:23;101968.31;;;6.97;89.67
46394;BME280;32099;53.588;10.176;2024-01-25T07:59:49;101964.34;;;7.01;89.48
46394;BME280;32099;53.588;10.176;2024-01-25T08:02:14;101983.09;;;7.04;88.91
46394;BME280;32099;53.588;10.176;2024-01-25T08:04:43;101973.97;;;7.05;89.50
46394;BME280;32099;53.588;10.176;2024-01-25T08:07:09;101978.41;;;7.06;89.53
46394;BME280;32099;53.588;10.176;2024-01-25T08:09:34;101980.97;;;7.08;90.16
46394;BME280;32099;53.588;10.176;2024-01-25T08:12:00;101991.69;;;7.09;89.85
46394;BME280;32099;53.588;10.176;2024-01-25T08:14:34;101983.28;;;7.13;90.48
46394;BME280;32099;53.588;10.176;2024-01-25T08:16:59;101994.00;;;7.14;89.53
46394;BME280;32099;53.588;10.176;2024-01-25T08:19:33;101986.88;;;7.13;90.02
46394;BME280;32099;53.588;10.176;2024-01-25T08:22:01;101992.16;;;7.15;90.03
46394;BME280;32099;53.588;10.176;2024-01-25T08:24:27;101994.16;;;7.13;91.00
46394;BME280;32099;53.588;10.176;2024-01-25T08:26:53;102004.16;;;7.12;89.79
46394;BME280;32099;53.588;10.176;2024-01-25T08:29:19;101995.88;;;7.14;90.19
46394;BME280;32099;53.588;10.176;2024-01-25T08:31:44;102000.06;;;7.18;90.21
46394;BME280;32099;53.588;10.176;2024-01-25T08:34:10;101996.22;;;7.20;90.64
46394;BME280;32099;53.588;10.176;2024-01-25T08:36:36;102013.97;;;7.24;91.02
46394;BME280;32099;53.588;10.176;2024-01-25T08:39:04;102005.53;;;7.28;90.63
46394;BME280;32099;53.588;10.176;2024-01-25T08:41:29;102003.81;;;7.26;90.38
46394;BME280;32099;53.588;10.176;2024-01-25T08:43:55;102003.97;;;7.25;89.73
46394;BME280;32099;53.588;10.176;2024-01-25T08:46:21;102009.38;;;7.25;89.69
46394;BME280;32099;53.588;10.176;2024-01-25T08:48:46;102012.09;;;7.25;91.26
46394;BME280;32099;53.588;10.176;2024-01-25T08:51:12;102005.09;;;7.22;89.99
46394;BME280;32099;53.588;10.176;2024-01-25T08:53:38;102008.91;;;7.20;89.57
46394;BME280;32099;53.588;10.176;2024-01-25T08:56:06;101955.41;;;6.89;89.92
46394;BME280;32099;53.588;10.176;2024-01-25T08:58:32;102014.81;;;7.25;91.00
46394;BME280;32099;53.588;10.176;2024-01-25T09:00:58;102025.41;;;7.28;89.58
46394;BME280;32099;53.588;10.176;2024-01-25T09:03:23;102016.88;;;7.33;90.03
46394;BME280;32099;53.588;10.176;2024-01-25T09:05:49;102026.34;;;7.38;89.84
46394;BME280;32099;53.588;10.176;2024-01-25T09:08:15;102024.47;;;7.39;89.54
46394;BME280;32099;53.588;10.176;2024-01-25T09:10:41;102032.38;;;7.42;89.43
46394;BME280;32099;53.588;10.176;2024-01-25T09:13:10;102038.41;;;7.46;89.37
46394;BME280;32099;53.588;10.176;2024-01-25T09:15:35;102048.13;;;7.48;88.93
46394;BME280;32099;53.588;10.176;2024-01-25T09:18:01;102045.28;;;7.50;88.77
46394;BME280;32099;53.588;10.176;2024-01-25T09:20:27;102048.47;;;7.55;89.14
46394;BME280;32099;53.588;10.176;2024-01-25T09:22:53;102047.34;;;7.57;88.30
46394;BME280;32099;53.588;10.176;2024-01-25T09:25:18;102060.19;;;7.55;87.98
46394;BME280;32099;53.588;10.176;2024-01-25T09:27:44;102057.59;;;7.54;88.08
46394;BME280;32099;53.588;10.176;2024-01-25T09:30:13;102054.88;;;7.54;87.86
46394;BME280;32099;53.588;10.176;2024-01-25T09:32:40;102064.16;;;7.51;88.80
46394;BME280;32099;53.588;10.176;2024-01-25T09:35:06;102059.72;;;7.50;88.44
46394;BME280;32099;53.588;10.176;2024-01-25T09:37:32;102060.59;;;7.51;89.28
46394;BME280;32099;53.588;10.176;2024-01-25T09:39:58;102058.22;;;7.57;88.72
46394;BME280;32099;53.588;10.176;2024-01-25T09:42:24;102074.22;;;7.61;88.68
46394;BME280;32099;53.588;10.176;2024-01-25T09:44:49;102080.38;;;7.63;88.68
46394;BME280;32099;53.588;10.176;2024-01-25T09:47:20;102074.22;;;7.61;88.21
46394;BME280;32099;53.588;10.176;2024-01-25T09:49:49;102080.38;;;7.63;89.25
46394;BME280;32099;53.588;10.176;2024-01-25T09:52:16;102099.00;;;7.67;88.55
46394;BME280;32099;53.588;10.176;2024-01-25T09:54:46;102097.28;;;7.66;88.42
46394;BME280;32099;53.588;10.176;2024-01-25T09:57:13;102091.38;;;7.61;88.95
46394;BME280;32099;53.588;10.176;2024-01-25T09:59:40;102089.91;;;7.57;88.53
46394;BME280;32099;53.588;10.176;2024-01-25T10:02:06;102097.06;;;7.58;89.47
46394;BME280;32099;53.588;10.176;2024-01-25T10:04:36;102098.81;;;7.59;88.74
46394;BME280;32099;53.588;10.176;2024-01-25T10:07:02;102088.38;;;7.43;88.78
46394;BME280;32099;53.588;10.176;2024-01-25T10:09:29;102106.69;;;7.62;88.36
46394;BME280;32099;53.588;10.176;2024-01-25T10:12:03;102112.72;;;7.66;88.79
46394;BME280;32099;53.588;10.176;2024-01-25T10:14:29;102108.13;;;7.66;88.25
46394;BME280;32099;53.588;10.176;2024-01-25T10:16:54;102120.72;;;7.67;88.93
46394;BME280;32099;53.588;10.176;2024-01-25T10:19:20;102122.44;;;7.68;88.87
46394;BME280;32099;53.588;10.176;2024-01-25T10:21:48;102120.47;;;7.70;87.81
46394;BME280;32099;53.588;10.176;2024-01-25T10:24:14;102125.66;;;7.74;88.07
46394;BME280;32099;53.588;10.176;2024-01-25T10:26:40;102128.97;;;7.77;88.87
46394;BME280;32099;53.588;10.176;2024-01-25T10:29:06;102135.38;;;7.76;88.87
46394;BME280;32099;53.588;10.176;2024-01-25T10:31:33;102130.69;;;7.78;88.76
46394;BME280;32099;53.588;10.176;2024-01-25T10:34:04;102126.84;;;7.81;87.67
46394;BME280;32099;53.588;10.176;2024-01-25T10:36:30;102145.84;;;7.81;88.80
46394;BME280;32099;53.588;10.176;2024-01-25T10:39:00;102138.28;;;7.84;88.14
46394;BME280;32099;53.588;10.176;2024-01-25T10:41:28;102137.31;;;7.85;88.53
46394;BME280;32099;53.588;10.176;2024-01-25T10:43:56;102131.03;;;7.85;87.52
46394;BME280;32099;53.588;10.176;2024-01-25T10:46:22;102131.75;;;7.87;87.89
46394;BME280;32099;53.588;10.176;2024-01-25T10:48:48;102133.59;;;7.86;88.35
46394;BME280;32099;53.588;10.176;2024-01-25T10:51:15;102121.50;;;7.91;86.74
46394;BME280;32099;53.588;10.176;2024-01-25T10:53:42;102124.22;;;7.91;87.53
46394;BME280;32099;53.588;10.176;2024-01-25T10:56:10;102125.06;;;7.91;87.22
46394;BME280;32099;53.588;10.176;2024-01-25T10:58:40;102117.50;;;7.95;87.92
46394;BME280;32099;53.588;10.176;2024-01-25T11:01:08;102058.94;;;7.60;86.48
46394;BME280;32099;53.588;10.176;2024-01-25T11:03:34;102126.78;;;7.92;87.81
46394;BME280;32099;53.588;10.176;2024-01-25T11:06:06;102125.94;;;7.92;87.47
46394;BME280;32099;53.588;10.176;2024-01-25T11:08:32;102133.09;;;7.93;86.78
46394;BME280;32099;53.588;10.176;2024-01-25T11:11:00;102130.38;;;7.93;87.06
46394;BME280;32099;53.588;10.176;2024-01-25T11:13:28;102137.53;;;7.94;86.76
46394;BME280;32099;53.588;10.176;2024-01-25T11:15:54;102132.81;;;7.96;87.14
46394;BME280;32099;53.588;10.176;2024-01-25T11:18:20;102143.56;;;7.97;87.48
46394;BME280;32099;53.588;10.176;2024-01-25T11:20:50;102140.56;;;8.00;86.83
46394;BME280;32099;53.588;10.176;2024-01-25T11:23:16;102140.56;;;8.00;86.64
46394;BME280;32099;53.588;10.176;2024-01-25T11:25:44;102148.59;;;8.02;86.56
46394;BME280;32099;53.588;10.176;2024-01-25T11:28:11;102139.72;;;8.00;86.50
46394;BME280;32099;53.588;10.176;2024-01-25T11:30:42;102144.88;;;8.03;86.62
46394;BME280;32099;53.588;10.176;2024-01-25T11:33:08;102087.16;;;7.68;86.53
46394;BME280;32099;53.588;10.176;2024-01-25T11:35:42;102137.72;;;8.02;85.96
46394;BME280;32099;53.588;10.176;2024-01-25T11:38:19;102138.06;;;8.09;85.54
46394;BME280;32099;53.588;10.176;2024-01-25T11:40:47;102142.22;;;8.13;85.58
46394;BME280;32099;53.588;10.176;2024-01-25T11:43:13;102145.66;;;8.15;84.63
46394;BME280;32099;53.588;10.176;2024-01-25T11:45:38;102141.38;;;8.12;84.67
46394;BME280;32099;53.588;10.176;2024-01-25T11:48:07;102147.94;;;8.10;83.93
46394;BME280;32099;53.588;10.176;2024-01-25T11:50:33;102141.50;;;8.11;84.54
46394;BME280;32099;53.588;10.176;2024-01-25T11:52:58;102133.06;;;8.14;84.71
46394;BME280;32099;53.588;10.176;2024-01-25T11:55:24;102143.41;;;8.20;84.45
46394;BME280;32099;53.588;10.176;2024-01-25T11:57:50;102139.44;;;8.24;83.51
46394;BME280;32099;53.588;10.176;2024-01-25T12:00:16;102134.97;;;8.23;83.95
46394;BME280;32099;53.588;10.176;2024-01-25T12:02:43;102139.56;;;8.23;84.49
46394;BME280;32099;53.588;10.176;2024-01-25T12:05:12;102138.00;;;8.20;83.83
46394;BME280;32099;53.588;10.176;2024-01-25T12:07:38;102138.09;;;8.18;84.46
46394;BME280;32099;53.588;10.176;2024-01-25T12:10:05;102141.97;;;8.16;85.05
46394;BME280;32099;53.588;10.176;2024-01-25T12:12:34;102143.81;;;8.15;84.45
46394;BME280;32099;53.588;10.176;2024-01-25T12:15:01;102133.06;;;8.14;85.04
46394;BME280;32099;53.588;10.176;2024-01-25T12:17:29;102134.06;;;8.13;86.09
46394;BME280;32099;53.588;10.176;2024-01-25T12:19:55;102141.09;;;8.15;84.93
46394;BME280;32099;53.588;10.176;2024-01-25T12:22:26;102148.53;;;8.13;85.52
46394;BME280;32099;53.588;10.176;2024-01-25T12:24:53;102150.38;;;8.13;85.40
46394;BME280;32099;53.588;10.176;2024-01-25T12:27:19;102150.09;;;8.16;86.33
46394;BME280;32099;53.588;10.176;2024-01-25T12:29:45;102149.97;;;8.17;85.39
46394;BME280;32099;53.588;10.176;2024-01-25T12:32:11;102153.56;;;8.18;85.34
46394;BME280;32099;53.588;10.176;2024-01-25T12:34:37;102150.97;;;8.16;86.23
46394;BME280;32099;53.588;10.176;2024-01-25T12:37:02;102141.69;;;8.19;86.55
46394;BME280;32099;53.588;10.176;2024-01-25T12:39:31;102152.69;;;8.17;85.53
46394;BME280;32099;53.588;10.176;2024-01-25T12:41:57;102147.38;;;8.16;86.51
46394;BME280;32099;53.588;10.176;2024-01-25T12:44:22;102148.38;;;8.15;85.84
46394;BME280;32099;53.588;10.176;2024-01-25T12:46:48;102140.38;;;8.13;86.00